sensor_id;sensor_type;location;lat;lon;timestamp;temperature;humidity
22781;DHT22;11557;50.884;4.322;2022-09-01T00:02:24;22.00;99.90
22781;DHT22;11557;50.884;4.322;2022-09-01T00:04:54;22.00;99.90
22781;DHT22;11557;50.884;4.322;2022-09-01T00:07:27;22.00;99.90
22781;DHT22;11557;50.884;4.322;2022-09-01T00:09:54;21.80;99.90
22781;DHT22;11557;50.884;4.322;2022-09-01T00:12:20;21.90;99.90
22781;DHT22;11557;50.884;4.322;2022-09-01T00:14:47;21.90;99.90
22781;DHT22;11557;50.884;4.322;2022-09-01T00:17:13;21.80;99.90
22781;DHT22;11557;50.884;4.322;2022-09-01T00:19:39;21.90;99.90
22781;DHT22;11557;50.884;4.322;2022-09-01T00:22:06;21.80;99.90
22781;DHT22;11557;50.884;4.322;2022-09-01T00:24:32;21.80;99.90
22781;DHT22;11557;50.884;4.322;2022-09-01T00:26:58;21.80;99.90
22781;DHT22;11557;50.884;4.322;2022-09-01T00:29:24;21.80;99.90
22781;DHT22;11557;50.884;4.322;2022-09-01T00:31:50;21.70;99.90
22781;DHT22;11557;50.884;4.322;2022-09-01T00:34:16;21.60;99.90
22781;DHT22;11557;50.884;4.322;2022-09-01T00:36:41;21.60;99.90
22781;DHT22;11557;50.884;4.322;2022-09-01T00:39:08;21.70;99.90
22781;DHT22;11557;50.884;4.322;2022-09-01T00:41:37;21.60;99.90
22781;DHT22;11557;50.884;4.322;2022-09-01T00:44:06;21.60;99.90
22781;DHT22;11557;50.884;4.322;2022-09-01T00:46:38;21.50;99.90
22781;DHT22;11557;50.884;4.322;2022-09-01T00:49:08;21.40;99.90
22781;DHT22;11557;50.884;4.322;2022-09-01T00:51:36;21.40;99.90
22781;DHT22;11557;50.884;4.322;2022-09-01T00:54:05;21.50;99.90
22781;DHT22;11557;50.884;4.322;2022-09-01T00:56:33;21.50;99.90
22781;DHT22;11557;50.884;4.322;2022-09-01T00:59:00;21.50;99.90
22781;DHT22;11557;50.884;4.322;2022-09-01T01:01:26;21.50;99.90
22781;DHT22;11557;50.884;4.322;2022-09-01T01:03:52;21.50;99.90
22781;DHT22;11557;50.884;4.322;2022-09-01T01:06:18;21.50;99.90
22781;DHT22;11557;50.884;4.322;2022-09-01T01:08:48;21.40;99.90
22781;DHT22;11557;50.884;4.322;2022-09-01T01:11:24;21.30;99.90
22781;DHT22;11557;50.884;4.322;2022-09-01T01:13:59;21.40;99.90
22781;DHT22;11557;50.884;4.322;2022-09-01T01:16:30;21.20;99.90
22781;DHT22;11557;50.884;4.322;2022-09-01T01:18:56;21.30;99.90
22781;DHT22;11557;50.884;4.322;2022-09-01T01:21:28;21.20;99.90
22781;DHT22;11557;50.884;4.322;2022-09-01T01:24:23;21.10;99.90
22781;DHT22;11557;50.884;4.322;2022-09-01T01:26:49;21.00;99.90
22781;DHT22;11557;50.884;4.322;2022-09-01T01:29:17;21.00;99.90
22781;DHT22;11557;50.884;4.322;2022-09-01T01:31:44;20.90;99.90
22781;DHT22;11557;50.884;4.322;2022-09-01T01:34:12;21.10;99.90
22781;DHT22;11557;50.884;4.322;2022-09-01T01:36:39;21.00;99.90
22781;DHT22;11557;50.884;4.322;2022-09-01T01:39:13;20.80;99.90
22781;DHT22;11557;50.884;4.322;2022-09-01T01:41:41;20.90;99.90
22781;DHT22;11557;50.884;4.322;2022-09-01T01:44:08;20.90;99.90
22781;DHT22;11557;50.884;4.322;2022-09-01T01:46:41;20.90;99.90
22781;DHT22;11557;50.884;4.322;2022-09-01T01:49:09;20.80;99.90
22781;DHT22;11557;50.884;4.322;2022-09-01T01:51:38;20.80;99.90
22781;DHT22;11557;50.884;4.322;2022-09-01T01:54:04;20.90;99.90
22781;DHT22;11557;50.884;4.322;2022-09-01T01:56:33;20.90;99.90
22781;DHT22;11557;50.884;4.322;2022-09-01T01:59:02;20.90;99.90
22781;DHT22;11557;50.884;4.322;2022-09-01T02:01:29;20.90;99.90
22781;DHT22;11557;50.884;4.322;2022-09-01T02:04:00;20.90;99.90
22781;DHT22;11557;50.884;4.322;2022-09-01T02:06:33;20.80;99.90
22781;DHT22;11557;50.884;4.322;2022-09-01T02:08:59;20.80;99.90
22781;DHT22;11557;50.884;4.322;2022-09-01T02:11:26;20.90;99.90
22781;DHT22;11557;50.884;4.322;2022-09-01T02:13:53;20.80;99.90
22781;DHT22;11557;50.884;4.322;2022-09-01T02:16:23;20.90;99.90
22781;DHT22;11557;50.884;4.322;2022-09-01T02:18:49;20.80;99.90
22781;DHT22;11557;50.884;4.322;2022-09-01T02:21:17;20.90;99.90
22781;DHT22;11557;50.884;4.322;2022-09-01T02:23:54;20.90;99.90
22781;DHT22;11557;50.884;4.322;2022-09-01T02:26:28;20.80;99.90
22781;DHT22;11557;50.884;4.322;2022-09-01T02:29:02;20.80;99.90
22781;DHT22;11557;50.884;4.322;2022-09-01T02:31:30;20.80;99.90
22781;DHT22;11557;50.884;4.322;2022-09-01T02:33:57;20.80;99.90
22781;DHT22;11557;50.884;4.322;2022-09-01T02:36:23;20.80;99.90
22781;DHT22;11557;50.884;4.322;2022-09-01T02:38:50;21.00;99.90
22781;DHT22;11557;50.884;4.322;2022-09-01T02:41:17;20.90;99.90
22781;DHT22;11557;50.884;4.322;2022-09-01T02:43:45;20.80;99.90
22781;DHT22;11557;50.884;4.322;2022-09-01T02:46:12;20.80;99.90
22781;DHT22;11557;50.884;4.322;2022-09-01T02:48:41;20.80;99.90
22781;DHT22;11557;50.884;4.322;2022-09-01T02:51:12;20.90;99.90
22781;DHT22;11557;50.884;4.322;2022-09-01T02:53:40;20.90;99.90
22781;DHT22;11557;50.884;4.322;2022-09-01T02:56:09;20.90;99.90
22781;DHT22;11557;50.884;4.322;2022-09-01T02:58:37;20.80;99.90
22781;DHT22;11557;50.884;4.322;2022-09-01T03:01:36;20.90;99.90
22781;DHT22;11557;50.884;4.322;2022-09-01T03:04:05;20.90;99.90
22781;DHT22;11557;50.884;4.322;2022-09-01T03:06:32;20.80;99.90
22781;DHT22;11557;50.884;4.322;2022-09-01T03:09:05;20.70;99.90
22781;DHT22;11557;50.884;4.322;2022-09-01T03:11:32;20.90;99.90
22781;DHT22;11557;50.884;4.322;2022-09-01T03:13:59;20.80;99.90
22781;DHT22;11557;50.884;4.322;2022-09-01T03:16:26;20.80;99.90
22781;DHT22;11557;50.884;4.322;2022-09-01T03:18:52;20.80;99.90
22781;DHT22;11557;50.884;4.322;2022-09-01T03:21:19;20.70;99.90
22781;DHT22;11557;50.884;4.322;2022-09-01T03:23:46;20.80;99.90
22781;DHT22;11557;50.884;4.322;2022-09-01T03:26:23;20.70;99.90
22781;DHT22;11557;50.884;4.322;2022-09-01T03:28:50;20.70;99.90
22781;DHT22;11557;50.884;4.322;2022-09-01T03:31:18;20.60;99.90
22781;DHT22;11557;50.884;4.322;2022-09-01T03:33:44;20.60;99.90
22781;DHT22;11557;50.884;4.322;2022-09-01T03:36:10;20.60;99.90
22781;DHT22;11557;50.884;4.322;2022-09-01T03:38:47;20.50;99.90
22781;DHT22;11557;50.884;4.322;2022-09-01T03:41:14;20.50;99.90
22781;DHT22;11557;50.884;4.322;2022-09-01T03:43:43;20.40;99.90
22781;DHT22;11557;50.884;4.322;2022-09-01T03:46:09;20.50;99.90
22781;DHT22;11557;50.884;4.322;2022-09-01T03:48:41;20.50;99.90
22781;DHT22;11557;50.884;4.322;2022-09-01T03:51:07;20.50;99.90
22781;DHT22;11557;50.884;4.322;2022-09-01T03:53:36;20.50;99.90
22781;DHT22;11557;50.884;4.322;2022-09-01T03:56:03;20.40;99.90
22781;DHT22;11557;50.884;4.322;2022-09-01T03:58:30;20.40;99.90
22781;DHT22;11557;50.884;4.322;2022-09-01T04:00:57;20.30;99.90
22781;DHT22;11557;50.884;4.322;2022-09-01T04:03:28;20.40;99.90
22781;DHT22;11557;50.884;4.322;2022-09-01T04:05:57;20.30;99.90
22781;DHT22;11557;50.884;4.322;2022-09-01T04:08:24;20.20;99.90
22781;DHT22;11557;50.884;4.322;2022-09-01T04:10:52;20.10;99.90
22781;DHT22;11557;50.884;4.322;2022-09-01T04:13:25;20.00;99.90
22781;DHT22;11557;50.884;4.322;2022-09-01T04:15:52;20.10;99.90
22781;DHT22;11557;50.884;4.322;2022-09-01T04:18:18;20.10;99.90
22781;DHT22;11557;50.884;4.322;2022-09-01T04:20:53;20.10;99.90
22781;DHT22;11557;50.884;4.322;2022-09-01T04:26:06;20.30;99.90
22781;DHT22;11557;50.884;4.322;2022-09-01T04:28:41;20.20;99.90
22781;DHT22;11557;50.884;4.322;2022-09-01T04:31:12;20.20;99.90
22781;DHT22;11557;50.884;4.322;2022-09-01T04:33:44;20.20;99.90
22781;DHT22;11557;50.884;4.322;2022-09-01T04:36:27;20.10;99.90
22781;DHT22;11557;50.884;4.322;2022-09-01T04:39:00;20.10;99.90
22781;DHT22;11557;50.884;4.322;2022-09-01T04:41:29;20.10;99.90
22781;DHT22;11557;50.884;4.322;2022-09-01T04:43:58;20.00;99.90
22781;DHT22;11557;50.884;4.322;2022-09-01T04:46:26;20.00;99.90
22781;DHT22;11557;50.884;4.322;2022-09-01T04:48:55;20.00;99.90
22781;DHT22;11557;50.884;4.322;2022-09-01T04:51:22;20.00;99.90
22781;DHT22;11557;50.884;4.322;2022-09-01T04:53:53;20.00;99.90
22781;DHT22;11557;50.884;4.322;2022-09-01T04:56:20;19.80;99.90
22781;DHT22;11557;50.884;4.322;2022-09-01T04:58:50;19.80;99.90
22781;DHT22;11557;50.884;4.322;2022-09-01T05:01:19;19.70;99.90
22781;DHT22;11557;50.884;4.322;2022-09-01T05:03:46;19.70;99.90
22781;DHT22;11557;50.884;4.322;2022-09-01T05:06:28;19.60;99.90
22781;DHT22;11557;50.884;4.322;2022-09-01T05:08:54;19.60;99.90
22781;DHT22;11557;50.884;4.322;2022-09-01T05:11:25;19.70;99.90
22781;DHT22;11557;50.884;4.322;2022-09-01T05:13:52;19.80;99.90
22781;DHT22;11557;50.884;4.322;2022-09-01T05:16:22;19.70;99.90
22781;DHT22;11557;50.884;4.322;2022-09-01T05:18:51;19.70;99.90
22781;DHT22;11557;50.884;4.322;2022-09-01T05:21:22;19.70;99.90
22781;DHT22;11557;50.884;4.322;2022-09-01T05:23:53;19.70;99.90
22781;DHT22;11557;50.884;4.322;2022-09-01T05:26:21;19.60;99.90
22781;DHT22;11557;50.884;4.322;2022-09-01T05:28:50;19.60;99.90
22781;DHT22;11557;50.884;4.322;2022-09-01T05:31:18;19.50;99.90
22781;DHT22;11557;50.884;4.322;2022-09-01T05:33:45;19.50;99.90
22781;DHT22;11557;50.884;4.322;2022-09-01T05:36:19;19.50;99.90
22781;DHT22;11557;50.884;4.322;2022-09-01T05:38:46;19.50;99.90
22781;DHT22;11557;50.884;4.322;2022-09-01T05:41:14;19.60;99.90
22781;DHT22;11557;50.884;4.322;2022-09-01T05:43:42;19.40;99.90
22781;DHT22;11557;50.884;4.322;2022-09-01T05:46:12;19.40;99.90
22781;DHT22;11557;50.884;4.322;2022-09-01T05:49:01;19.50;99.90
22781;DHT22;11557;50.884;4.322;2022-09-01T05:51:29;19.60;99.90
22781;DHT22;11557;50.884;4.322;2022-09-01T05:53:57;19.60;99.90
22781;DHT22;11557;50.884;4.322;2022-09-01T05:56:27;19.60;99.90
22781;DHT22;11557;50.884;4.322;2022-09-01T05:58:55;19.50;99.90
22781;DHT22;11557;50.884;4.322;2022-09-01T06:01:24;19.60;99.90
22781;DHT22;11557;50.884;4.322;2022-09-01T06:03:52;19.60;99.90
22781;DHT22;11557;50.884;4.322;2022-09-01T06:06:24;19.70;99.90
22781;DHT22;11557;50.884;4.322;2022-09-01T06:08:50;19.60;99.90
22781;DHT22;11557;50.884;4.322;2022-09-01T06:11:17;19.50;99.90
22781;DHT22;11557;50.884;4.322;2022-09-01T06:13:46;20.40;99.90
22781;DHT22;11557;50.884;4.322;2022-09-01T06:16:15;19.50;99.90
22781;DHT22;11557;50.884;4.322;2022-09-01T06:18:42;19.50;99.90
22781;DHT22;11557;50.884;4.322;2022-09-01T06:21:12;19.50;99.90
22781;DHT22;11557;50.884;4.322;2022-09-01T06:23:40;19.60;99.90
22781;DHT22;11557;50.884;4.322;2022-09-01T06:26:15;19.60;99.90
22781;DHT22;11557;50.884;4.322;2022-09-01T06:28:44;19.70;99.90
22781;DHT22;11557;50.884;4.322;2022-09-01T06:31:10;19.80;99.90
22781;DHT22;11557;50.884;4.322;2022-09-01T06:33:37;19.90;99.90
22781;DHT22;11557;50.884;4.322;2022-09-01T06:36:04;19.90;99.90
22781;DHT22;11557;50.884;4.322;2022-09-01T06:38:30;20.00;99.90
22781;DHT22;11557;50.884;4.322;2022-09-01T06:41:01;20.00;99.90
22781;DHT22;11557;50.884;4.322;2022-09-01T06:43:29;20.00;99.90
22781;DHT22;11557;50.884;4.322;2022-09-01T06:45:55;20.10;99.90
22781;DHT22;11557;50.884;4.322;2022-09-01T06:48:49;20.30;99.90
22781;DHT22;11557;50.884;4.322;2022-09-01T06:51:17;20.10;99.90
22781;DHT22;11557;50.884;4.322;2022-09-01T06:53:46;20.00;99.90
22781;DHT22;11557;50.884;4.322;2022-09-01T06:56:22;19.90;99.90
22781;DHT22;11557;50.884;4.322;2022-09-01T06:58:52;20.00;99.90
22781;DHT22;11557;50.884;4.322;2022-09-01T07:01:19;20.10;99.90
22781;DHT22;11557;50.884;4.322;2022-09-01T07:03:50;20.10;99.90
22781;DHT22;11557;50.884;4.322;2022-09-01T07:06:23;20.20;99.90
22781;DHT22;11557;50.884;4.322;2022-09-01T07:08:56;20.30;99.90
22781;DHT22;11557;50.884;4.322;2022-09-01T07:11:30;20.30;99.90
22781;DHT22;11557;50.884;4.322;2022-09-01T07:14:00;20.30;99.90
22781;DHT22;11557;50.884;4.322;2022-09-01T07:16:28;20.40;99.90
22781;DHT22;11557;50.884;4.322;2022-09-01T07:18:56;20.40;99.90
22781;DHT22;11557;50.884;4.322;2022-09-01T07:21:25;20.40;99.90
22781;DHT22;11557;50.884;4.322;2022-09-01T07:23:51;20.40;99.90
22781;DHT22;11557;50.884;4.322;2022-09-01T07:26:18;20.40;99.90
22781;DHT22;11557;50.884;4.322;2022-09-01T07:28:48;20.40;99.90
22781;DHT22;11557;50.884;4.322;2022-09-01T07:31:23;20.50;99.90
22781;DHT22;11557;50.884;4.322;2022-09-01T07:33:50;20.60;99.90
22781;DHT22;11557;50.884;4.322;2022-09-01T07:36:19;20.60;99.90
22781;DHT22;11557;50.884;4.322;2022-09-01T07:38:45;20.70;99.90
22781;DHT22;11557;50.884;4.322;2022-09-01T07:41:16;20.80;99.90
22781;DHT22;11557;50.884;4.322;2022-09-01T07:43:41;20.90;99.90
22781;DHT22;11557;50.884;4.322;2022-09-01T07:46:10;20.90;99.90
22781;DHT22;11557;50.884;4.322;2022-09-01T07:48:36;21.00;99.90
22781;DHT22;11557;50.884;4.322;2022-09-01T07:51:02;21.00;99.90
22781;DHT22;11557;50.884;4.322;2022-09-01T07:53:31;21.00;99.90
22781;DHT22;11557;50.884;4.322;2022-09-01T07:56:05;21.00;99.90
22781;DHT22;11557;50.884;4.322;2022-09-01T07:58:31;21.00;99.90
22781;DHT22;11557;50.884;4.322;2022-09-01T08:00:58;21.10;99.90
22781;DHT22;11557;50.884;4.322;2022-09-01T08:03:28;21.10;99.90
22781;DHT22;11557;50.884;4.322;2022-09-01T08:05:54;21.20;99.90
22781;DHT22;11557;50.884;4.322;2022-09-01T08:08:25;21.30;99.90
22781;DHT22;11557;50.884;4.322;2022-09-01T08:10:52;21.30;99.90
22781;DHT22;11557;50.884;4.322;2022-09-01T08:13:19;21.40;99.90
22781;DHT22;11557;50.884;4.322;2022-09-01T08:15:44;21.50;99.90
22781;DHT22;11557;50.884;4.322;2022-09-01T08:18:11;21.60;99.90
22781;DHT22;11557;50.884;4.322;2022-09-01T08:20:38;21.60;99.90
22781;DHT22;11557;50.884;4.322;2022-09-01T08:23:10;21.70;99.90
22781;DHT22;11557;50.884;4.322;2022-09-01T08:25:36;21.70;99.90
22781;DHT22;11557;50.884;4.322;2022-09-01T08:28:03;21.80;99.90
22781;DHT22;11557;50.884;4.322;2022-09-01T08:30:29;21.90;99.90
22781;DHT22;11557;50.884;4.322;2022-09-01T08:32:57;22.10;99.90
22781;DHT22;11557;50.884;4.322;2022-09-01T08:35:23;23.10;99.90
22781;DHT22;11557;50.884;4.322;2022-09-01T08:37:49;25.50;99.90
22781;DHT22;11557;50.884;4.322;2022-09-01T08:40:18;28.20;99.90
22781;DHT22;11557;50.884;4.322;2022-09-01T08:45:52;31.70;99.90
22781;DHT22;11557;50.884;4.322;2022-09-01T08:48:39;33.10;99.90
22781;DHT22;11557;50.884;4.322;2022-09-01T08:53:45;35.30;98.40
22781;DHT22;11557;50.884;4.322;2022-09-01T08:56:12;36.30;97.10
22781;DHT22;11557;50.884;4.322;2022-09-01T08:58:40;36.80;95.70
22781;DHT22;11557;50.884;4.322;2022-09-01T09:01:17;37.20;94.40
22781;DHT22;11557;50.884;4.322;2022-09-01T09:06:31;38.30;92.90
22781;DHT22;11557;50.884;4.322;2022-09-01T09:09:03;38.80;91.30
22781;DHT22;11557;50.884;4.322;2022-09-01T09:12:07;39.40;90.80
22781;DHT22;11557;50.884;4.322;2022-09-01T09:15:04;39.10;90.30
22781;DHT22;11557;50.884;4.322;2022-09-01T09:17:38;39.60;90.10
22781;DHT22;11557;50.884;4.322;2022-09-01T09:20:06;40.10;88.90
22781;DHT22;11557;50.884;4.322;2022-09-01T09:22:32;40.30;88.30
22781;DHT22;11557;50.884;4.322;2022-09-01T09:25:12;40.60;85.60
22781;DHT22;11557;50.884;4.322;2022-09-01T09:27:44;40.70;85.30
22781;DHT22;11557;50.884;4.322;2022-09-01T09:35:36;40.70;84.00
22781;DHT22;11557;50.884;4.322;2022-09-01T09:41:07;40.60;84.70
22781;DHT22;11557;50.884;4.322;2022-09-01T09:43:37;40.60;83.80
22781;DHT22;11557;50.884;4.322;2022-09-01T09:49:21;40.30;84.10
22781;DHT22;11557;50.884;4.322;2022-09-01T09:54:27;40.00;86.10
22781;DHT22;11557;50.884;4.322;2022-09-01T09:57:42;39.70;85.20
22781;DHT22;11557;50.884;4.322;2022-09-01T10:00:30;39.70;86.00
22781;DHT22;11557;50.884;4.322;2022-09-01T10:03:39;39.50;87.20
22781;DHT22;11557;50.884;4.322;2022-09-01T10:06:13;39.10;87.80
22781;DHT22;11557;50.884;4.322;2022-09-01T10:09:05;38.50;83.70
22781;DHT22;11557;50.884;4.322;2022-09-01T10:11:39;37.70;83.30
22781;DHT22;11557;50.884;4.322;2022-09-01T10:14:26;37.50;82.60
22781;DHT22;11557;50.884;4.322;2022-09-01T10:16:59;37.30;81.70
22781;DHT22;11557;50.884;4.322;2022-09-01T10:19:27;37.00;87.90
22781;DHT22;11557;50.884;4.322;2022-09-01T10:22:02;36.90;84.90
22781;DHT22;11557;50.884;4.322;2022-09-01T10:24:34;36.70;82.80
22781;DHT22;11557;50.884;4.322;2022-09-01T10:27:21;36.60;83.30
22781;DHT22;11557;50.884;4.322;2022-09-01T10:30:25;36.20;85.80
22781;DHT22;11557;50.884;4.322;2022-09-01T10:32:58;35.80;86.80
22781;DHT22;11557;50.884;4.322;2022-09-01T10:35:34;35.60;84.90
22781;DHT22;11557;50.884;4.322;2022-09-01T10:38:07;35.50;82.80
22781;DHT22;11557;50.884;4.322;2022-09-01T10:40:36;35.20;85.20
22781;DHT22;11557;50.884;4.322;2022-09-01T10:43:24;35.00;82.30
22781;DHT22;11557;50.884;4.322;2022-09-01T10:45:53;34.20;85.90
22781;DHT22;11557;50.884;4.322;2022-09-01T10:48:28;34.00;84.10
22781;DHT22;11557;50.884;4.322;2022-09-01T10:53:46;34.10;90.40
22781;DHT22;11557;50.884;4.322;2022-09-01T11:04:17;33.20;87.60
22781;DHT22;11557;50.884;4.322;2022-09-01T11:06:55;32.70;84.80
22781;DHT22;11557;50.884;4.322;2022-09-01T11:09:40;32.50;86.70
22781;DHT22;11557;50.884;4.322;2022-09-01T11:15:43;32.30;88.30
22781;DHT22;11557;50.884;4.322;2022-09-01T11:18:30;32.30;87.90
22781;DHT22;11557;50.884;4.322;2022-09-01T11:23:49;31.70;88.60
22781;DHT22;11557;50.884;4.322;2022-09-01T11:29:00;32.20;88.00
22781;DHT22;11557;50.884;4.322;2022-09-01T11:31:46;32.20;89.90
22781;DHT22;11557;50.884;4.322;2022-09-01T11:34:20;32.10;88.40
22781;DHT22;11557;50.884;4.322;2022-09-01T11:36:53;32.20;88.50
22781;DHT22;11557;50.884;4.322;2022-09-01T11:39:40;31.90;85.90
22781;DHT22;11557;50.884;4.322;2022-09-01T11:42:33;31.90;88.10
22781;DHT22;11557;50.884;4.322;2022-09-01T11:45:22;32.50;90.30
22781;DHT22;11557;50.884;4.322;2022-09-01T11:47:54;31.90;88.30
22781;DHT22;11557;50.884;4.322;2022-09-01T11:53:03;32.10;88.50
22781;DHT22;11557;50.884;4.322;2022-09-01T11:55:40;32.20;86.10
22781;DHT22;11557;50.884;4.322;2022-09-01T11:58:11;32.00;86.50
22781;DHT22;11557;50.884;4.322;2022-09-01T12:00:41;32.00;87.60
22781;DHT22;11557;50.884;4.322;2022-09-01T12:03:41;32.00;90.30
22781;DHT22;11557;50.884;4.322;2022-09-01T12:06:27;32.10;87.10
22781;DHT22;11557;50.884;4.322;2022-09-01T12:16:00;32.00;87.40
22781;DHT22;11557;50.884;4.322;2022-09-01T12:18:49;31.70;87.50
22781;DHT22;11557;50.884;4.322;2022-09-01T12:21:55;31.70;87.30
22781;DHT22;11557;50.884;4.322;2022-09-01T12:24:50;31.80;88.00
22781;DHT22;11557;50.884;4.322;2022-09-01T12:27:20;31.20;88.60
22781;DHT22;11557;50.884;4.322;2022-09-01T12:30:25;30.60;88.10
22781;DHT22;11557;50.884;4.322;2022-09-01T12:36:36;30.80;90.30
22781;DHT22;11557;50.884;4.322;2022-09-01T12:45:47;30.80;90.20
22781;DHT22;11557;50.884;4.322;2022-09-01T12:58:24;30.80;90.20
22781;DHT22;11557;50.884;4.322;2022-09-01T13:01:06;30.70;90.20
22781;DHT22;11557;50.884;4.322;2022-09-01T13:22:11;30.10;91.00
22781;DHT22;11557;50.884;4.322;2022-09-01T13:24:37;30.10;91.50
22781;DHT22;11557;50.884;4.322;2022-09-01T13:27:16;30.00;90.60
22781;DHT22;11557;50.884;4.322;2022-09-01T13:29:52;30.00;91.10
22781;DHT22;11557;50.884;4.322;2022-09-01T13:42:58;29.70;90.90
22781;DHT22;11557;50.884;4.322;2022-09-01T13:54:01;29.80;90.70
22781;DHT22;11557;50.884;4.322;2022-09-01T14:09:58;29.30;91.10
22781;DHT22;11557;50.884;4.322;2022-09-01T14:12:41;29.30;91.10
22781;DHT22;11557;50.884;4.322;2022-09-01T14:18:40;29.40;90.00
22781;DHT22;11557;50.884;4.322;2022-09-01T14:41:38;29.50;91.00
22781;DHT22;11557;50.884;4.322;2022-09-01T14:44:09;29.40;90.10
22781;DHT22;11557;50.884;4.322;2022-09-01T14:57:22;29.50;89.60
22781;DHT22;11557;50.884;4.322;2022-09-01T15:03:42;29.00;90.40
22781;DHT22;11557;50.884;4.322;2022-09-01T15:06:16;29.00;90.40
22781;DHT22;11557;50.884;4.322;2022-09-01T15:08:56;29.10;89.50
22781;DHT22;11557;50.884;4.322;2022-09-01T15:15:00;29.10;89.50
22781;DHT22;11557;50.884;4.322;2022-09-01T15:34:56;28.80;89.40
22781;DHT22;11557;50.884;4.322;2022-09-01T15:37:24;28.80;89.60
22781;DHT22;11557;50.884;4.322;2022-09-01T15:39:51;28.70;89.50
22781;DHT22;11557;50.884;4.322;2022-09-01T15:42:22;28.60;90.30
22781;DHT22;11557;50.884;4.322;2022-09-01T15:44:49;28.50;89.10
22781;DHT22;11557;50.884;4.322;2022-09-01T15:47:20;28.30;87.80
22781;DHT22;11557;50.884;4.322;2022-09-01T15:49:52;28.30;88.50
22781;DHT22;11557;50.884;4.322;2022-09-01T15:52:21;28.40;89.50
22781;DHT22;11557;50.884;4.322;2022-09-01T15:54:50;28.40;89.70
22781;DHT22;11557;50.884;4.322;2022-09-01T15:57:19;28.40;89.90
22781;DHT22;11557;50.884;4.322;2022-09-01T15:59:48;28.50;88.60
22781;DHT22;11557;50.884;4.322;2022-09-01T16:02:14;28.50;89.10
22781;DHT22;11557;50.884;4.322;2022-09-01T16:04:48;28.60;88.10
22781;DHT22;11557;50.884;4.322;2022-09-01T16:07:20;28.50;87.90
22781;DHT22;11557;50.884;4.322;2022-09-01T16:09:58;28.50;88.00
22781;DHT22;11557;50.884;4.322;2022-09-01T16:12:28;28.30;87.40
22781;DHT22;11557;50.884;4.322;2022-09-01T16:18:56;28.00;89.60
22781;DHT22;11557;50.884;4.322;2022-09-01T16:21:34;27.80;87.40
22781;DHT22;11557;50.884;4.322;2022-09-01T16:24:09;27.80;88.60
22781;DHT22;11557;50.884;4.322;2022-09-01T16:26:40;27.80;88.60
22781;DHT22;11557;50.884;4.322;2022-09-01T16:29:27;27.70;87.90
22781;DHT22;11557;50.884;4.322;2022-09-01T16:31:59;27.70;87.60
22781;DHT22;11557;50.884;4.322;2022-09-01T16:35:07;27.70;87.60
22781;DHT22;11557;50.884;4.322;2022-09-01T16:41:02;27.50;90.10
22781;DHT22;11557;50.884;4.322;2022-09-01T16:43:48;27.40;89.60
22781;DHT22;11557;50.884;4.322;2022-09-01T16:49:18;27.20;88.50
22781;DHT22;11557;50.884;4.322;2022-09-01T16:52:18;27.10;90.00
22781;DHT22;11557;50.884;4.322;2022-09-01T16:59:58;26.90;90.00
22781;DHT22;11557;50.884;4.322;2022-09-01T17:05:52;26.80;90.40
22781;DHT22;11557;50.884;4.322;2022-09-01T17:08:30;26.80;90.30
22781;DHT22;11557;50.884;4.322;2022-09-01T17:14:44;27.00;90.60
22781;DHT22;11557;50.884;4.322;2022-09-01T17:17:56;26.60;90.50
22781;DHT22;11557;50.884;4.322;2022-09-01T17:27:00;26.40;90.70
22781;DHT22;11557;50.884;4.322;2022-09-01T17:35:35;26.20;91.30
22781;DHT22;11557;50.884;4.322;2022-09-01T17:47:47;26.00;92.20
22781;DHT22;11557;50.884;4.322;2022-09-01T18:04:28;25.50;93.50
22781;DHT22;11557;50.884;4.322;2022-09-01T18:10:24;24.80;94.30
22781;DHT22;11557;50.884;4.322;2022-09-01T18:19:26;23.70;94.80
22781;DHT22;11557;50.884;4.322;2022-09-01T18:29:01;24.70;95.70
22781;DHT22;11557;50.884;4.322;2022-09-01T19:02:14;24.10;97.10
22781;DHT22;11557;50.884;4.322;2022-09-01T19:04:43;24.00;97.40
22781;DHT22;11557;50.884;4.322;2022-09-01T19:07:41;24.00;97.70
22781;DHT22;11557;50.884;4.322;2022-09-01T19:10:16;23.90;97.20
22781;DHT22;11557;50.884;4.322;2022-09-01T19:12:59;23.80;97.30
22781;DHT22;11557;50.884;4.322;2022-09-01T19:18:18;23.80;97.10
22781;DHT22;11557;50.884;4.322;2022-09-01T19:21:02;23.70;99.50
22781;DHT22;11557;50.884;4.322;2022-09-01T19:23:57;23.70;98.20
22781;DHT22;11557;50.884;4.322;2022-09-01T19:26:31;23.70;98.60
22781;DHT22;11557;50.884;4.322;2022-09-01T19:29:08;23.60;99.60
22781;DHT22;11557;50.884;4.322;2022-09-01T19:31:39;23.50;97.40
22781;DHT22;11557;50.884;4.322;2022-09-01T19:34:15;23.60;98.20
22781;DHT22;11557;50.884;4.322;2022-09-01T19:36:49;23.50;98.70
22781;DHT22;11557;50.884;4.322;2022-09-01T19:39:23;23.40;99.40
22781;DHT22;11557;50.884;4.322;2022-09-01T19:50:18;23.30;99.00
22781;DHT22;11557;50.884;4.322;2022-09-01T19:52:57;23.30;99.90
22781;DHT22;11557;50.884;4.322;2022-09-01T19:58:09;23.30;99.30
22781;DHT22;11557;50.884;4.322;2022-09-01T20:00:45;23.30;98.80
22781;DHT22;11557;50.884;4.322;2022-09-01T20:03:42;23.20;98.50
22781;DHT22;11557;50.884;4.322;2022-09-01T20:16:40;23.10;98.70
22781;DHT22;11557;50.884;4.322;2022-09-01T20:22:17;23.10;99.90
22781;DHT22;11557;50.884;4.322;2022-09-01T20:24:43;23.10;99.90
22781;DHT22;11557;50.884;4.322;2022-09-01T20:30:11;23.00;99.90
22781;DHT22;11557;50.884;4.322;2022-09-01T20:36:03;23.00;99.90
22781;DHT22;11557;50.884;4.322;2022-09-01T20:38:51;22.90;99.90
22781;DHT22;11557;50.884;4.322;2022-09-01T20:44:43;23.00;99.90
22781;DHT22;11557;50.884;4.322;2022-09-01T20:47:12;22.90;99.90
22781;DHT22;11557;50.884;4.322;2022-09-01T20:49:38;22.90;99.90
22781;DHT22;11557;50.884;4.322;2022-09-01T20:52:14;22.90;99.90
22781;DHT22;11557;50.884;4.322;2022-09-01T20:55:04;22.90;99.90
22781;DHT22;11557;50.884;4.322;2022-09-01T21:00:26;22.90;99.60
22781;DHT22;11557;50.884;4.322;2022-09-01T21:05:49;22.80;99.90
22781;DHT22;11557;50.884;4.322;2022-09-01T21:08:42;22.80;99.90
22781;DHT22;11557;50.884;4.322;2022-09-01T21:11:27;22.80;99.90
22781;DHT22;11557;50.884;4.322;2022-09-01T21:14:11;22.80;99.90
22781;DHT22;11557;50.884;4.322;2022-09-01T21:19:38;22.70;99.90
22781;DHT22;11557;50.884;4.322;2022-09-01T21:22:09;22.70;99.90
22781;DHT22;11557;50.884;4.322;2022-09-01T21:24:36;22.70;99.90
22781;DHT22;11557;50.884;4.322;2022-09-01T21:27:05;22.60;99.90
22781;DHT22;11557;50.884;4.322;2022-09-01T21:32:04;22.50;99.90
22781;DHT22;11557;50.884;4.322;2022-09-01T21:34:29;22.40;99.90
22781;DHT22;11557;50.884;4.322;2022-09-01T21:36:57;22.40;99.90
22781;DHT22;11557;50.884;4.322;2022-09-01T21:39:22;22.90;99.90
22781;DHT22;11557;50.884;4.322;2022-09-01T21:41:48;22.30;99.90
22781;DHT22;11557;50.884;4.322;2022-09-01T21:44:14;22.30;99.90